Time;durP1;ratioP1;P1;durP2;ratioP2;P2;SDS_P1;SDS_P2;PMS_P1;PMS_P2;Temp;Humidity;BMP_temperature;BMP_pressure;BME280_temperature;BME280_humidity;BME280_pressure;Samples;Min_cycle;Max_cycle;Signal;HPM_P1;HPM_P2
2022/03/22 00:01:14;;;;;;;7.78;4.40;;;;;;;;;;5048407;28;20024;-78
2022/03/22 00:03:46;;;;;;;9.55;2.88;;;;;;;;;;5037027;28;20083;-78
2022/03/22 00:06:12;;;;;;;8.02;4.28;;;;;;;;;;5042478;28;20535;-78
2022/03/22 00:08:38;;;;;;;8.80;4.22;;;;;;;;;;5042271;28;20041;-79
2022/03/22 00:11:04;;;;;;;13.35;4.30;;;;;;;;;;5042232;28;20504;-78
2022/03/22 00:13:30;;;;;;;10.32;4.13;;;;;;;;;;5035536;28;20025;-78
2022/03/22 00:15:56;;;;;;;12.35;4.60;;;;;;;;;;5038315;28;20045;-78
2022/03/22 00:18:22;;;;;;;6.40;3.50;;;;;;;;;;5042358;28;20037;-78
2022/03/22 00:20:49;;;;;;;11.13;4.35;;;;;;;;;;5040549;28;20040;-78
2022/03/22 00:23:15;;;;;;;8.70;3.33;;;;;;;;;;5035352;28;20938;-78
2022/03/22 00:25:41;;;;;;;5.85;3.40;;;;;;;;;;5039942;28;20029;-78
2022/03/22 00:28:07;;;;;;;8.05;2.95;;;;;;;;;;5039796;28;20128;-78
2022/03/22 00:30:35;;;;;;;15.30;5.53;;;;;;;;;;5043059;28;20039;-78
2022/03/22 00:33:02;;;;;;;8.00;3.40;;;;;;;;;;5044021;28;20545;-78
2022/03/22 00:35:29;;;;;;;9.95;4.13;;;;;;;;;;5036059;28;20468;-78
2022/03/22 00:37:57;;;;;;;7.28;4.47;;;0.40;99.90;;;;;;5048753;28;20090;-77
2022/03/22 00:40:27;;;;;;;7.97;3.38;;;;;;;;;;5042687;28;20496;-78
2022/03/22 00:42:53;;;;;;;10.73;3.45;;;;;;;;;;5040371;28;20033;-78
2022/03/22 00:45:22;;;;;;;8.55;3.72;;;-0.40;99.90;;;;;;5036359;28;20028;-78
2022/03/22 00:47:48;;;;;;;11.55;4.65;;;;;;;;;;5049253;28;20041;-78
2022/03/22 00:50:16;;;;;;;8.10;3.85;;;-0.40;99.90;;;;;;5049411;28;20025;-77
2022/03/22 00:52:42;;;;;;;13.20;5.18;;;;;;;;;;5034461;28;20037;-78
2022/03/22 00:55:09;;;;;;;11.73;4.70;;;;;;;;;;5047543;28;20461;-77
2022/03/22 00:57:35;;;;;;;11.43;4.95;;;;;;;;;;5034361;28;20028;-78
2022/03/22 01:00:04;;;;;;;8.57;3.63;;;;;;;;;;5039426;28;20079;-77
2022/03/22 01:02:30;;;;;;;8.23;3.80;;;;;;;;;;5043444;28;20021;-78
2022/03/22 01:04:57;;;;;;;7.68;4.43;;;;;;;;;;5040311;28;20064;-78
2022/03/22 01:07:23;;;;;;;11.20;4.85;;;;;;;;;;5038997;28;20047;-77
2022/03/22 01:09:49;;;;;;;9.43;4.35;;;;;;;;;;5046968;28;20071;-77
2022/03/22 01:12:15;;;;;;;5.90;3.67;;;;;;;;;;5034128;28;20028;-77
2022/03/22 01:14:42;;;;;;;6.55;4.10;;;;;;;;;;5037952;28;20064;-77
2022/03/22 01:17:08;;;;;;;7.05;3.25;;;;;;;;;;5041121;28;20025;-77
2022/03/22 01:19:35;;;;;;;7.85;2.88;;;;;;;;;;5038704;28;20067;-77
2022/03/22 01:22:01;;;;;;;11.60;4.35;;;;;;;;;;5042714;28;20041;-77
2022/03/22 01:24:27;;;;;;;10.10;4.47;;;;;;;;;;5044217;28;20096;-77
2022/03/22 01:26:53;;;;;;;7.15;3.83;;;;;;;;;;5034991;28;20132;-78
2022/03/22 01:29:19;;;;;;;8.90;3.60;;;;;;;;;;5045555;28;20037;-78
2022/03/22 01:31:45;;;;;;;7.60;4.60;;;;;;;;;;5038568;28;20115;-77
2022/03/22 01:34:11;;;;;;;12.52;4.53;;;;;;;;;;5035722;28;20025;-77
2022/03/22 01:36:37;;;;;;;6.82;3.55;;;;;;;;;;5036039;28;20078;-77
2022/03/22 01:39:04;;;;;;;9.32;5.22;;;;;;;;;;5037082;28;20534;-78
2022/03/22 01:41:30;;;;;;;7.10;3.38;;;;;;;;;;5035746;28;20029;-77
2022/03/22 01:43:56;;;;;;;9.40;3.92;;;;;;;;;;5031936;28;20021;-77
2022/03/22 01:46:25;;;;;;;4.78;3.05;;;;;;;;;;5034644;28;20028;-77
2022/03/22 01:48:52;;;;;;;7.13;3.92;;;;;;;;;;5040462;28;20056;-77
2022/03/22 01:51:21;;;;;;;14.77;4.45;;;;;;;;;;5039026;28;20112;-77
2022/03/22 01:53:47;;;;;;;5.07;3.05;;;;;;;;;;5036459;28;20786;-78
2022/03/22 01:56:13;;;;;;;10.93;3.42;;;;;;;;;;5043057;28;20017;-77
2022/03/22 01:58:39;;;;;;;9.73;3.35;;;;;;;;;;5031438;28;20033;-77
2022/03/22 02:06:36;;;;;;;6.03;2.85;;;;;;;;;;5046096;28;20044;-77
2022/03/22 02:09:02;;;;;;;5.50;3.92;;;;;;;;;;5034915;28;20128;-78
2022/03/22 02:11:28;;;;;;;9.02;3.58;;;;;;;;;;5038146;28;20021;-78
2022/03/22 02:13:55;;;;;;;9.77;3.97;;;;;;;;;;5032418;28;20091;-77
2022/03/22 02:16:22;;;;;;;5.72;3.25;;;;;;;;;;5041048;28;20041;-77
2022/03/22 02:18:50;;;;;;;6.95;3.00;;;-0.80;99.90;;;;;;5042986;28;20028;-77
2022/03/22 02:21:16;;;;;;;6.60;3.42;;;;;;;;;;5040327;28;20063;-78
2022/03/22 02:23:48;;;;;;;6.60;2.88;;;;;;;;;;5045950;28;20029;-77
2022/03/22 02:26:15;;;;;;;14.98;4.70;;;;;;;;;;5045151;28;20466;-78
2022/03/22 02:28:42;;;;;;;6.35;4.35;;;;;;;;;;5042723;28;20055;-77
2022/03/22 02:31:08;;;;;;;7.60;3.35;;;;;;;;;;5035758;28;20421;-77
2022/03/22 02:33:34;;;;;;;6.97;3.90;;;;;;;;;;5041841;28;20044;-77
2022/03/22 02:36:00;;;;;;;20.95;3.92;;;;;;;;;;5040139;28;20030;-78
2022/03/22 02:38:26;;;;;;;5.05;3.20;;;;;;;;;;5044560;28;20483;-79
2022/03/22 02:40:52;;;;;;;10.23;3.78;;;;;;;;;;5031782;28;20115;-77
2022/03/22 02:43:18;;;;;;;12.60;4.00;;;;;;;;;;5033655;28;20095;-77
2022/03/22 02:45:44;;;;;;;8.50;4.28;;;;;;;;;;5027574;28;20039;-77
2022/03/22 02:48:11;;;;;;;5.70;3.50;;;;;;;;;;5039498;28;20044;-77
2022/03/22 02:50:37;;;;;;;4.07;2.70;;;;;;;;;;5035145;28;20029;-80
2022/03/22 02:53:03;;;;;;;11.02;4.65;;;;;;;;;;5036981;28;20454;-77
2022/03/22 02:55:29;;;;;;;7.97;3.67;;;;;;;;;;5048823;28;20144;-80
2022/03/22 02:57:55;;;;;;;10.55;4.95;;;;;;;;;;5035667;28;20141;-77
2022/03/22 03:00:23;;;;;;;8.50;3.47;;;;;;;;;;5034373;28;20021;-77
2022/03/22 03:02:51;;;;;;;7.85;3.42;;;;;;;;;;5043099;28;20124;-77
2022/03/22 03:05:17;;;;;;;4.10;2.65;;;;;;;;;;5035123;28;20045;-79
2022/03/22 03:07:43;;;;;;;5.93;3.10;;;;;;;;;;5043606;28;20524;-77
2022/03/22 03:10:10;;;;;;;8.43;2.50;;;;;;;;;;5037243;28;20029;-78
2022/03/22 03:12:36;;;;;;;6.63;2.53;;;;;;;;;;5039498;28;20048;-77
2022/03/22 03:15:03;;;;;;;5.22;2.83;;;;;;;;;;5033879;28;20036;-77
2022/03/22 03:17:29;;;;;;;12.30;4.15;;;;;;;;;;5041849;28;20166;-77
2022/03/22 03:19:55;;;;;;;8.15;3.28;;;;;;;;;;5038458;28;20044;-79
2022/03/22 03:22:21;;;;;;;8.32;3.92;;;;;;;;;;5041192;28;20030;-80
2022/03/22 03:24:47;;;;;;;12.18;4.25;;;;;;;;;;5039241;28;20030;-79
2022/03/22 03:27:13;;;;;;;8.50;3.30;;;;;;;;;;5031859;28;20037;-78
2022/03/22 03:29:40;;;;;;;13.23;4.65;;;;;;;;;;5035153;28;20025;-79
2022/03/22 03:32:06;;;;;;;6.05;3.17;;;;;;;;;;5035951;28;20037;-78
2022/03/22 03:34:32;;;;;;;5.43;3.03;;;;;;;;;;5029104;28;20897;-78
2022/03/22 03:36:58;;;;;;;7.35;3.10;;;;;;;;;;5040124;28;20028;-78
2022/03/22 03:39:24;;;;;;;6.53;2.38;;;;;;;;;;5035793;28;20381;-78
2022/03/22 03:41:53;;;;;;;6.78;3.45;;;;;;;;;;5039950;28;20053;-78
2022/03/22 03:47:05;;;;;;;7.95;4.35;;;-1.60;99.90;;;;;;5037965;28;20155;-77
2022/03/22 03:49:34;;;;;;;9.82;3.97;;;;;;;;;;5039509;28;20076;-78
2022/03/22 03:52:01;;;;;;;9.32;3.40;;;;;;;;;;5038925;28;20102;-78
2022/03/22 03:54:27;;;;;;;9.98;3.53;;;;;;;;;;5030759;28;20390;-77
2022/03/22 03:56:53;;;;;;;10.68;3.65;;;;;;;;;;5035683;28;20121;-77
2022/03/22 03:59:19;;;;;;;3.95;2.85;;;;;;;;;;5033534;28;20048;-78
2022/03/22 04:01:45;;;;;;;5.90;3.17;;;;;;;;;;5039795;28;20035;-78
2022/03/22 04:04:11;;;;;;;7.80;3.60;;;;;;;;;;5039213;28;20030;-78
2022/03/22 04:06:37;;;;;;;7.05;3.65;;;;;;;;;;5042785;28;20044;-78
2022/03/22 04:09:03;;;;;;;9.65;3.08;;;;;;;;;;5041568;28;20036;-78
2022/03/22 04:11:29;;;;;;;9.65;3.70;;;;;;;;;;5046814;28;20029;-78
2022/03/22 04:13:54;;;;;;;9.60;3.42;;;;;;;;;;5046620;28;20025;-78
2022/03/22 04:16:21;;;;;;;8.15;2.97;;;;;;;;;;5043892;28;20029;-78
2022/03/22 04:18:47;;;;;;;11.98;4.55;;;;;;;;;;5045545;28;20481;-79
2022/03/22 04:21:13;;;;;;;6.30;4.43;;;;;;;;;;5045009;28;20033;-78
2022/03/22 04:23:39;;;;;;;8.40;3.80;;;;;;;;;;5051316;28;20035;-78
2022/03/22 04:26:05;;;;;;;4.00;3.35;;;;;;;;;;5040832;28;20029;-78
2022/03/22 04:34:01;;;;;;;8.02;3.15;;;;;;;;;;5040578;28;20056;-78
2022/03/22 04:36:28;;;;;;;7.85;3.22;;;;;;;;;;5042735;28;20029;-78
2022/03/22 04:38:55;;;;;;;4.47;2.97;;;;;;;;;;5042227;28;20131;-79
2022/03/22 04:41:21;;;;;;;5.95;2.53;;;;;;;;;;5038414;28;20024;-78
2022/03/22 04:43:47;;;;;;;6.50;4.55;;;;;;;;;;5037495;28;20026;-78
2022/03/22 04:46:18;;;;;;;8.38;3.22;;;;;;;;;;5035003;28;20033;-78
2022/03/22 04:48:44;;;;;;;4.78;3.33;;;;;;;;;;5039073;28;20041;-79
2022/03/22 04:56:43;;;;;;;5.88;2.80;;;;;;;;;;5040390;28;20051;-78
2022/03/22 04:59:09;;;;;;;15.07;2.97;;;;;;;;;;5039730;28;20075;-78
2022/03/22 05:01:35;;;;;;;6.20;3.47;;;;;;;;;;5037991;28;20034;-78
2022/03/22 05:04:01;;;;;;;6.65;4.28;;;;;;;;;;5035653;28;20060;-78
2022/03/22 05:06:27;;;;;;;6.15;3.67;;;-2.30;99.90;;;;;;5044731;28;20156;-78
2022/03/22 05:08:54;;;;;;;8.38;3.35;;;;;;;;;;5038325;28;20040;-78
2022/03/22 05:11:20;;;;;;;8.57;3.72;;;;;;;;;;5045446;28;20075;-78
2022/03/22 05:13:46;;;;;;;9.52;4.40;;;;;;;;;;5039376;28;20078;-78
2022/03/22 05:16:12;;;;;;;8.60;3.53;;;;;;;;;;5030702;28;20029;-80
2022/03/22 05:18:38;;;;;;;8.52;3.83;;;;;;;;;;5043250;28;20036;-79
2022/03/22 05:21:04;;;;;;;6.05;3.60;;;;;;;;;;5047282;28;20021;-79
2022/03/22 05:23:31;;;;;;;6.82;3.05;;;;;;;;;;5048645;28;20108;-79
2022/03/22 05:25:58;;;;;;;11.50;5.35;;;;;;;;;;5056135;28;20053;-78
2022/03/22 05:28:24;;;;;;;8.73;4.70;;;;;;;;;;5044209;28;20176;-80
2022/03/22 05:30:50;;;;;;;7.78;4.00;;;;;;;;;;5039256;28;20542;-78
2022/03/22 05:33:16;;;;;;;9.60;3.95;;;;;;;;;;5063162;28;20040;-79
2022/03/22 05:35:41;;;;;;;11.20;5.65;;;;;;;;;;5049543;28;20271;-80
2022/03/22 05:38:07;;;;;;;4.78;3.17;;;;;;;;;;5042250;28;20021;-79
2022/03/22 05:40:34;;;;;;;8.40;4.45;;;;;;;;;;5051618;28;20550;-81
2022/03/22 05:43:00;;;;;;;8.10;3.83;;;;;;;;;;5050492;28;20048;-81
2022/03/22 05:45:29;;;;;;;5.40;3.65;;;;;;;;;;5058322;28;20337;-80
2022/03/22 05:47:55;;;;;;;9.45;4.05;;;;;;;;;;5049558;28;20059;-81
2022/03/22 05:50:21;;;;;;;7.75;3.25;;;;;;;;;;5052171;28;20052;-79
2022/03/22 05:52:49;;;;;;;12.30;5.50;;;;;;;;;;5047572;28;20319;-79
2022/03/22 05:55:16;;;;;;;7.57;4.38;;;;;;;;;;5045535;28;20088;-80
2022/03/22 05:57:42;;;;;;;6.95;4.80;;;;;;;;;;5043682;28;20731;-80
2022/03/22 06:00:09;;;;;;;12.13;4.53;;;;;;;;;;5042368;28;20029;-80
2022/03/22 06:02:39;;;;;;;14.10;4.60;;;;;;;;;;5051081;28;20029;-80
2022/03/22 06:05:09;;;;;;;15.93;5.57;;;;;;;;;;5045706;28;20522;-81
2022/03/22 06:07:36;;;;;;;12.85;4.60;;;;;;;;;;5047496;28;20504;-82
2022/03/22 06:10:03;;;;;;;8.35;4.75;;;;;;;;;;5046283;28;20037;-81
2022/03/22 06:12:46;;;;;;;16.45;7.30;;;-0.90;99.90;;;;;;5050615;28;20105;-81
2022/03/22 06:15:17;;;;;;;29.58;8.93;;;-1.00;99.90;;;;;;5053303;28;20032;-82
2022/03/22 06:17:50;;;;;;;13.98;5.72;;;;;;;;;;5049664;28;20781;-82
2022/03/22 06:20:17;;;;;;;6.82;3.50;;;;;;;;;;5058282;28;20085;-81
2022/03/22 06:22:45;;;;;;;10.10;4.80;;;;;;;;;;5055237;28;20040;-83
2022/03/22 06:25:11;;;;;;;10.52;4.72;;;;;;;;;;5048819;28;20033;-84
2022/03/22 06:27:37;;;;;;;11.43;5.22;;;;;;;;;;5050869;28;20082;-81
2022/03/22 06:30:05;;;;;;;9.23;4.53;;;;;;;;;;5054232;28;20040;-81
2022/03/22 06:32:31;;;;;;;10.95;4.97;;;;;;;;;;5058062;28;20404;-80
2022/03/22 06:34:57;;;;;;;7.78;4.05;;;;;;;;;;5054364;28;20049;-80
2022/03/22 06:37:23;;;;;;;8.80;3.80;;;;;;;;;;5067384;28;20035;-82
2022/03/22 06:39:49;;;;;;;12.38;3.80;;;;;;;;;;5058585;28;20092;-80
2022/03/22 06:42:15;;;;;;;6.72;4.20;;;;;;;;;;5056931;28;20017;-80
2022/03/22 06:44:41;;;;;;;10.93;4.55;;;;;;;;;;5053311;28;20051;-81
2022/03/22 06:47:07;;;;;;;12.23;5.68;;;;;;;;;;5055781;28;20037;-82
2022/03/22 06:49:34;;;;;;;7.75;4.28;;;;;;;;;;5060680;28;20036;-81
2022/03/22 06:52:00;;;;;;;11.25;5.85;;;;;;;;;;5052521;28;20032;-81
2022/03/22 06:54:27;;;;;;;8.45;3.92;;;;;;;;;;5035767;28;20954;-81
2022/03/22 06:56:53;;;;;;;10.32;4.18;;;;;;;;;;5043707;28;20083;-82
2022/03/22 06:59:20;;;;;;;10.05;5.30;;;;;;;;;;5043890;28;20030;-83
2022/03/22 07:01:46;;;;;;;10.65;5.53;;;;;;;;;;5056221;28;20112;-81
2022/03/22 07:04:11;;;;;;;8.05;4.70;;;0.40;99.90;;;;;;5043124;28;20049;-82
2022/03/22 07:06:37;;;;;;;8.30;5.50;;;;;;;;;;5041504;28;20029;-83
2022/03/22 07:09:03;;;;;;;16.35;5.32;;;;;;;;;;5040552;28;20035;-84
2022/03/22 07:14:14;;;;;;;10.02;4.55;;;;;;;;;;5037373;28;20043;-84
2022/03/22 07:16:40;;;;;;;10.07;4.93;;;;;;;;;;5038453;28;20085;-83
2022/03/22 07:19:06;;;;;;;10.40;5.38;;;;;;;;;;5038445;28;20053;-81
2022/03/22 07:21:32;;;;;;;11.85;5.40;;;;;;;;;;5044875;28;20033;-82
2022/03/22 07:23:58;;;;;;;11.02;4.90;;;;;;;;;;5037690;28;20064;-82
2022/03/22 07:26:24;;;;;;;5.57;3.83;;;;;;;;;;5046392;28;20040;-83
2022/03/22 07:28:50;;;;;;;11.50;4.90;;;;;;;;;;5043628;28;20032;-82
2022/03/22 07:31:16;;;;;;;15.73;4.25;;;;;;;;;;5050595;28;20041;-82
2022/03/22 07:33:42;;;;;;;7.00;3.95;;;;;;;;;;5046432;28;20037;-82
2022/03/22 07:36:08;;;;;;;11.57;5.05;;;;;;;;;;5040905;28;20039;-81
2022/03/22 07:38:34;;;;;;;12.88;5.57;;;;;;;;;;5051158;28;20032;-81
2022/03/22 07:41:00;;;;;;;12.63;4.43;;;;;;;;;;5051731;28;20362;-82
2022/03/22 07:43:28;;;;;;;7.60;4.07;;;;;;;;;;5048140;28;20116;-82
2022/03/22 07:45:55;;;;;;;10.68;4.28;;;;;;;;;;5047317;28;20293;-82
2022/03/22 07:48:21;;;;;;;8.75;4.90;;;;;;;;;;5047355;28;20045;-81
2022/03/22 07:53:31;;;;;;;16.73;4.63;;;;;;;;;;5049710;28;20121;-83
2022/03/22 07:55:57;;;;;;;10.27;5.53;;;;;;;;;;5038105;28;20057;-82
2022/03/22 07:58:23;;;;;;;12.10;4.72;;;;;;;;;;5045463;28;20029;-82
2022/03/22 08:00:49;;;;;;;7.50;4.20;;;;;;;;;;5052887;28;20029;-82
2022/03/22 08:03:18;;;;;;;11.13;3.70;;;;;;;;;;5048811;28;20041;-81
2022/03/22 08:05:47;;;;;;;8.63;4.72;;;;;;;;;;5048752;28;20032;-81
2022/03/22 08:08:14;;;;;;;12.57;4.78;;;;;;;;;;5051451;28;20394;-81
2022/03/22 08:10:39;;;;;;;10.70;5.07;;;;;;;;;;5052941;28;20021;-81
2022/03/22 08:13:09;;;;;;;19.10;8.20;;;;;;;;;;5052545;28;20060;-80
2022/03/22 08:15:35;;;;;;;15.90;6.30;;;;;;;;;;5058131;28;20047;-81
2022/03/22 08:18:01;;;;;;;9.23;4.63;;;;;;;;;;5052068;28;20029;-82
2022/03/22 08:20:27;;;;;;;9.15;4.53;;;;;;;;;;5049720;28;20037;-81
2022/03/22 08:22:59;;;;;;;8.68;3.97;;;;;;;;;;5048731;28;20025;-81
2022/03/22 08:25:26;;;;;;;10.75;4.88;;;;;;;;;;5051157;28;20051;-83
2022/03/22 08:27:52;;;;;;;8.35;3.85;;;;;;;;;;5046704;28;20041;-81
2022/03/22 08:30:22;;;;;;;7.03;3.67;;;11.10;98.20;;;;;;5055416;28;20029;-81
2022/03/22 08:32:52;;;;;;;7.13;3.83;;;;;;;;;;5056945;28;20028;-81
2022/03/22 08:35:19;;;;;;;6.70;3.40;;;;;;;;;;5055635;28;20628;-81
2022/03/22 08:37:45;;;;;;;8.30;3.95;;;;;;;;;;5053608;28;20143;-80
2022/03/22 08:40:13;;;;;;;9.13;3.90;;;;;;;;;;5051720;28;20037;-80
2022/03/22 08:42:41;;;;;;;8.00;4.10;;;;;;;;;;5046108;28;20025;-81
2022/03/22 08:45:07;;;;;;;8.30;3.40;;;;;;;;;;5051818;28;20044;-81
2022/03/22 08:47:35;;;;;;;5.53;3.28;;;;;;;;;;5057767;28;20045;-80
2022/03/22 08:50:01;;;;;;;7.70;3.72;;;;;;;;;;5057875;28;20025;-80
2022/03/22 08:52:27;;;;;;;7.75;3.05;;;;;;;;;;5053430;28;20330;-81
2022/03/22 08:54:53;;;;;;;8.70;3.58;;;;;;;;;;5051685;28;20040;-81
2022/03/22 08:57:19;;;;;;;7.22;3.97;;;;;;;;;;5050532;28;20067;-81
2022/03/22 08:59:46;;;;;;;8.77;3.38;;;;;;;;;;5054844;28;20009;-81
2022/03/22 09:02:12;;;;;;;6.75;3.15;;;;;;;;;;5048434;28;20029;-81
2022/03/22 09:07:42;;;;;;;14.35;4.20;;;;;;;;;;5056958;28;20484;-82
2022/03/22 09:10:09;;;;;;;9.57;4.55;;;;;;;;;;5056900;28;20024;-81
2022/03/22 09:12:35;;;;;;;15.90;6.07;;;;;;;;;;5048162;28;20033;-81
2022/03/22 09:15:01;;;;;;;10.50;4.28;;;;;;;;;;5051962;28;20487;-82
2022/03/22 09:17:27;;;;;;;10.60;4.15;;;;;;;;;;5050087;28;20040;-81
2022/03/22 09:19:53;;;;;;;14.98;6.05;;;;;;;;;;5048436;28;20060;-81
2022/03/22 09:22:19;;;;;;;10.68;4.45;;;;;;;;;;5044791;28;20204;-81
2022/03/22 09:24:45;;;;;;;14.30;5.10;;;;;;;;;;5045684;28;20022;-81
2022/03/22 09:27:11;;;;;;;12.80;4.57;;;;;;;;;;5058242;28;20045;-81
2022/03/22 09:29:37;;;;;;;11.73;4.55;;;;;;;;;;5052472;28;20021;-81
2022/03/22 09:32:03;;;;;;;7.63;3.97;;;;;;;;;;5053697;28;20111;-82
2022/03/22 09:34:29;;;;;;;11.30;4.50;;;;;;;;;;5049859;28;20033;-81
2022/03/22 09:36:55;;;;;;;10.90;4.63;;;;;;;;;;5049727;28;20071;-81
2022/03/22 09:39:22;;;;;;;8.43;3.83;;;;;;;;;;5049876;28;20033;-82
2022/03/22 09:41:49;;;;;;;8.70;3.88;;;;;;;;;;5051591;28;20021;-81
2022/03/22 09:44:18;;;;;;;15.82;3.88;;;;;;;;;;5046361;28;20029;-81
2022/03/22 09:46:48;;;;;;;8.23;3.90;;;12.80;70.90;;;;;;5036986;28;20034;-81
2022/03/22 09:49:15;;;;;;;6.35;3.60;;;;;;;;;;5046122;28;20524;-83
2022/03/22 09:51:50;;;;;;;11.43;3.30;;;;;;;;;;5047201;28;20475;-82
2022/03/22 09:54:18;;;;;;;11.02;5.15;;;;;;;;;;5049273;28;20105;-83
2022/03/22 09:56:45;;;;;;;12.65;4.07;;;;;;;;;;5042486;28;20040;-84
2022/03/22 09:59:11;;;;;;;9.57;4.05;;;;;;;;;;5044696;28;20085;-82
2022/03/22 10:01:37;;;;;;;11.00;4.53;;;;;;;;;;5044636;28;20437;-83
2022/03/22 10:04:07;;;;;;;11.13;4.53;;;;;;;;;;5046841;28;20052;-83
2022/03/22 10:06:33;;;;;;;9.80;4.40;;;;;;;;;;5041915;28;20033;-82
2022/03/22 10:09:00;;;;;;;7.65;4.20;;;;;;;;;;5047413;28;20037;-82
2022/03/22 10:11:40;;;;;;;11.05;4.50;;;;;;;;;;5041991;28;20028;-83
2022/03/22 10:14:08;;;;;;;7.22;4.07;;;;;;;;;;5035459;28;20025;-84
2022/03/22 10:16:45;;;;;;;8.20;4.43;;;;;;;;;;5054816;28;20211;-82
2022/03/22 10:19:20;;;;;;;10.18;4.35;;;;;;;;;;5041154;28;20049;-83
2022/03/22 10:21:45;;;;;;;9.57;3.83;;;12.50;88.60;;;;;;5047169;28;20559;-84
2022/03/22 10:24:15;;;;;;;11.30;5.03;;;;;;;;;;5041015;28;20042;-84
2022/03/22 10:26:44;;;;;;;9.68;4.35;;;;;;;;;;5044129;28;20139;-81
2022/03/22 10:29:11;;;;;;;8.73;3.38;;;;;;;;;;5048227;28;20088;-83
2022/03/22 10:31:40;;;;;;;14.02;4.13;;;;;;;;;;5036374;28;20056;-82
2022/03/22 10:34:06;;;;;;;11.95;5.72;;;;;;;;;;5048981;28;20453;-83
2022/03/22 10:36:40;;;;;;;20.38;5.32;;;13.60;63.30;;;;;;5040749;28;20420;-83
2022/03/22 10:39:13;;;;;;;10.18;4.93;;;;;;;;;;5040864;28;20021;-83
2022/03/22 10:41:40;;;;;;;9.93;4.53;;;;;;;;;;5036988;28;20502;-84
2022/03/22 10:44:14;;;;;;;8.60;3.80;;;;;;;;;;5032430;28;20061;-82
2022/03/22 10:46:42;;;;;;;9.90;4.60;;;;;;;;;;5040117;28;20037;-82
2022/03/22 10:49:12;;;;;;;8.55;4.20;;;;;;;;;;5042717;28;20037;-83
2022/03/22 10:51:42;;;;;;;9.20;4.65;;;;;;;;;;5040571;28;20114;-83
2022/03/22 10:54:09;;;;;;;11.15;4.82;;;;;;;;;;5043211;28;20048;-83
2022/03/22 10:56:35;;;;;;;9.18;4.30;;;;;;;;;;5038795;28;20417;-83
2022/03/22 10:59:03;;;;;;;8.77;3.90;;;;;;;;;;5039969;28;20049;-84
2022/03/22 11:01:29;;;;;;;7.85;3.55;;;;;;;;;;5048262;28;20055;-82
2022/03/22 11:03:57;;;;;;;9.95;4.38;;;;;;;;;;5045948;28;20033;-82
2022/03/22 11:06:26;;;;;;;7.97;3.63;;;;;;;;;;5052860;28;20036;-82
2022/03/22 11:08:52;;;;;;;9.45;4.32;;;;;;;;;;5046506;28;20065;-81
2022/03/22 11:11:18;;;;;;;7.65;3.75;;;;;;;;;;5049075;28;20461;-83
2022/03/22 11:13:44;;;;;;;9.85;4.72;;;;;;;;;;5035503;28;20075;-82
2022/03/22 11:16:10;;;;;;;8.55;3.60;;;;;;;;;;5055890;28;20037;-82
2022/03/22 11:18:37;;;;;;;8.18;3.83;;;;;;;;;;5052741;28;20102;-83
2022/03/22 11:21:04;;;;;;;6.78;3.22;;;;;;;;;;5055857;28;20032;-81
2022/03/22 11:23:31;;;;;;;8.57;4.32;;;;;;;;;;5053637;28;20037;-81
2022/03/22 11:26:07;;;;;;;7.55;3.88;;;;;;;;;;5053593;28;20037;-83
2022/03/22 11:28:34;;;;;;;11.13;3.70;;;;;;;;;;5048036;28;20151;-82
2022/03/22 11:31:00;;;;;;;8.82;4.18;;;;;;;;;;5054024;28;20043;-82
2022/03/22 11:36:17;;;;;;;11.02;4.20;;;;;;;;;;5055176;28;20613;-83
2022/03/22 11:38:43;;;;;;;6.28;2.80;;;;;;;;;;5050690;28;20033;-83
2022/03/22 11:44:19;;;;;;;19.58;4.97;;;;;;;;;;5053070;28;20072;-82
2022/03/22 11:46:46;;;;;;;8.40;4.10;;;;;;;;;;5052436;28;20040;-82
2022/03/22 11:49:13;;;;;;;10.52;4.57;;;;;;;;;;5057042;28;20454;-82
2022/03/22 11:51:49;;;;;;;10.35;4.13;;;;;;;;;;5046772;28;20128;-82
2022/03/22 11:54:15;;;;;;;11.68;3.78;;;;;;;;;;5047584;28;20025;-82
2022/03/22 11:56:56;;;;;;;6.85;3.55;;;;;;;;;;5048502;28;20143;-82
2022/03/22 11:59:23;;;;;;;10.02;4.60;;;;;;;;;;5045422;28;20018;-82
2022/03/22 12:02:06;;;;;;;7.30;3.70;;;;;;;;;;5048088;28;20083;-82
2022/03/22 12:04:34;;;;;;;10.88;5.10;;;;;;;;;;5047373;28;20049;-82
2022/03/22 12:07:00;;;;;;;7.72;3.95;;;;;;;;;;5046082;28;20037;-81
2022/03/22 12:09:26;;;;;;;13.20;4.00;;;;;;;;;;5049641;28;20116;-82
2022/03/22 12:11:54;;;;;;;7.63;3.45;;;;;;;;;;5050029;28;20032;-81
2022/03/22 12:14:30;;;;;;;11.65;5.07;;;;;;;;;;5047973;28;20032;-82
2022/03/22 12:16:58;;;;;;;5.25;3.10;;;16.30;58.20;;;;;;5050953;28;20047;-81
2022/03/22 12:19:28;;;;;;;4.18;2.85;;;;;;;;;;5049043;28;20025;-82
2022/03/22 12:21:55;;;;;;;7.95;3.20;;;;;;;;;;5051909;28;20029;-81
2022/03/22 12:24:24;;;;;;;7.15;3.33;;;;;;;;;;5048592;28;20046;-82
2022/03/22 12:26:51;;;;;;;12.30;4.43;;;;;;;;;;5039701;28;20041;-82
2022/03/22 12:29:17;;;;;;;10.20;4.70;;;;;;;;;;5046516;28;20025;-83
2022/03/22 12:31:47;;;;;;;9.57;3.75;;;;;;;;;;5051892;28;20378;-82
2022/03/22 12:34:13;;;;;;;7.47;4.00;;;;;;;;;;5051666;28;20014;-80
2022/03/22 12:36:39;;;;;;;14.25;4.47;;;;;;;;;;5049641;28;20029;-82
2022/03/22 12:39:05;;;;;;;9.15;3.45;;;;;;;;;;5045746;28;20060;-82
2022/03/22 12:41:31;;;;;;;13.02;4.25;;;;;;;;;;5055308;28;20289;-81
2022/03/22 12:43:57;;;;;;;16.92;5.55;;;;;;;;;;5057398;28;20362;-81
2022/03/22 12:46:23;;;;;;;7.20;3.72;;;;;;;;;;5056148;28;20120;-82
2022/03/22 12:48:51;;;;;;;7.72;2.65;;;;;;;;;;5052070;28;20031;-82
2022/03/22 12:51:17;;;;;;;7.85;3.17;;;;;;;;;;5043139;28;20037;-81
2022/03/22 12:53:43;;;;;;;8.55;3.20;;;;;;;;;;5045216;28;20120;-83
2022/03/22 12:56:16;;;;;;;5.88;3.42;;;;;;;;;;5046332;28;20017;-83
2022/03/22 12:58:42;;;;;;;4.10;2.65;;;;;;;;;;5059185;28;20032;-82
2022/03/22 13:01:08;;;;;;;4.97;2.53;;;;;;;;;;5052748;28;20075;-81
2022/03/22 13:03:36;;;;;;;5.75;2.33;;;;;;;;;;5058224;28;20008;-82
2022/03/22 13:06:02;;;;;;;5.57;2.50;;;;;;;;;;5054228;28;20045;-83
2022/03/22 13:11:26;;;;;;;6.40;2.78;;;;;;;;;;5055914;28;20053;-83
2022/03/22 13:16:37;;;;;;;5.60;2.42;;;;;;;;;;5053247;28;20531;-83
2022/03/22 13:19:05;;;;;;;3.47;2.28;;;;;;;;;;5039623;28;20025;-82
2022/03/22 13:21:35;;;;;;;6.10;2.97;;;;;;;;;;5040342;28;20458;-83
2022/03/22 13:24:04;;;;;;;8.43;2.90;;;;;;;;;;5050745;28;20029;-82
2022/03/22 13:26:32;;;;;;;7.50;2.47;;;;;;;;;;5050047;28;20097;-82
2022/03/22 13:28:58;;;;;;;3.72;1.90;;;;;;;;;;5046226;28;20038;-82
2022/03/22 13:31:27;;;;;;;3.95;2.13;;;;;;;;;;5050352;28;20059;-83
2022/03/22 13:33:54;;;;;;;5.60;2.88;;;;;;;;;;5047224;28;20112;-83
2022/03/22 13:36:21;;;;;;;5.63;2.47;;;;;;;;;;5054461;28;20025;-84
2022/03/22 13:38:50;;;;;;;5.78;2.25;;;;;;;;;;5052699;28;20071;-83
2022/03/22 13:41:26;;;;;;;6.05;3.10;;;;;;;;;;5050818;28;20021;-83
2022/03/22 13:43:52;;;;;;;6.45;2.97;;;;;;;;;;5041149;28;20055;-83
2022/03/22 13:46:18;;;;;;;6.07;2.83;;;;;;;;;;5045436;28;20444;-83
2022/03/22 13:48:45;;;;;;;6.45;2.80;;;;;;;;;;5049857;28;20033;-83
2022/03/22 13:51:17;;;;;;;4.55;2.47;;;;;;;;;;5049172;28;20043;-82
2022/03/22 13:53:45;;;;;;;5.78;2.90;;;;;;;;;;5052811;28;20034;-82
2022/03/22 13:56:11;;;;;;;7.05;2.85;;;;;;;;;;5046104;28;20036;-83
2022/03/22 13:58:38;;;;;;;6.72;2.75;;;;;;;;;;5053490;28;20041;-82
2022/03/22 14:01:04;;;;;;;5.85;2.42;;;;;;;;;;5045592;28;20026;-82
2022/03/22 14:03:30;;;;;;;6.20;3.15;;;;;;;;;;5046397;28;20037;-82
2022/03/22 14:05:59;;;;;;;8.52;3.38;;;;;;;;;;5050024;28;21974;-82
2022/03/22 14:08:25;;;;;;;5.95;3.45;;;;;;;;;;5050334;28;20037;-83
2022/03/22 14:10:54;;;;;;;7.40;2.90;;;;;;;;;;5040829;28;20457;-82
2022/03/22 14:13:21;;;;;;;6.53;3.22;;;;;;;;;;5044261;28;20092;-82
2022/03/22 14:15:48;;;;;;;6.65;2.70;;;17.10;47.60;;;;;;5052953;28;20084;-82
2022/03/22 14:18:14;;;;;;;6.50;2.88;;;;;;;;;;5047358;28;20040;-82
2022/03/22 14:20:40;;;;;;;5.85;2.97;;;;;;;;;;5057209;28;20013;-82
2022/03/22 14:23:06;;;;;;;5.60;2.50;;;;;;;;;;5047969;28;20025;-82
2022/03/22 14:25:34;;;;;;;6.22;2.40;;;;;;;;;;5049252;28;20029;-82
2022/03/22 14:28:00;;;;;;;11.98;3.70;;;;;;;;;;5042056;28;20625;-83
2022/03/22 14:30:27;;;;;;;7.13;3.28;;;;;;;;;;5055333;28;20554;-83
2022/03/22 14:32:55;;;;;;;5.65;2.22;;;;;;;;;;5053589;28;20059;-82
2022/03/22 14:38:10;;;;;;;5.18;2.38;;;;;;;;;;5047393;28;20040;-83
2022/03/22 14:40:36;;;;;;;5.25;2.13;;;;;;;;;;5045600;28;20037;-83
2022/03/22 14:43:04;;;;;;;5.00;2.25;;;;;;;;;;5043223;28;20029;-83
2022/03/22 14:45:30;;;;;;;6.25;2.65;;;;;;;;;;5044416;28;20037;-83
2022/03/22 14:47:57;;;;;;;4.47;2.10;;;;;;;;;;5050236;28;20037;-82
2022/03/22 14:50:23;;;;;;;4.90;2.25;;;;;;;;;;5045669;28;20013;-82
2022/03/22 14:55:35;;;;;;;9.35;2.80;;;;;;;;;;5046497;28;20032;-82
2022/03/22 15:00:45;;;;;;;7.18;3.05;;;;;;;;;;5039779;28;20052;-82
2022/03/22 15:03:12;;;;;;;8.27;2.30;;;;;;;;;;5048763;28;20013;-83
2022/03/22 15:05:41;;;;;;;15.05;3.88;;;;;;;;;;5045570;28;20028;-81
2022/03/22 15:08:09;;;;;;;12.23;4.03;;;;;;;;;;5051190;28;20340;-82
2022/03/22 15:10:36;;;;;;;5.32;2.85;;;;;;;;;;5049338;28;20025;-82
2022/03/22 15:13:04;;;;;;;5.57;2.78;;;;;;;;;;5044907;28;20933;-82
2022/03/22 15:15:30;;;;;;;9.73;3.47;;;;;;;;;;5050954;28;20021;-82
2022/03/22 15:17:56;;;;;;;7.60;2.78;;;;;;;;;;5054901;28;20068;-81
2022/03/22 15:20:23;;;;;;;4.28;2.22;;;;;;;;;;5043451;28;20030;-82